createdAt,value
2019-05-13T00:03:03.376Z,30.50
2019-05-13T00:13:06.628Z,31.73
2019-05-13T00:23:10.599Z,33.02
2019-05-13T00:33:14.505Z,34.54
2019-05-13T00:43:18.088Z,36.86
2019-05-13T00:53:23.624Z,39.11
2019-05-13T01:03:28.439Z,40.72
2019-05-13T01:13:34.069Z,41.48
2019-05-13T01:23:37.379Z,40.96
2019-05-13T01:33:41.004Z,42.56
2019-05-13T01:43:44.576Z,41.45
2019-05-13T01:53:48.336Z,43.06
2019-05-13T02:03:54.363Z,41.63
2019-05-13T02:13:57.223Z,34.74
2019-05-13T02:24:00.831Z,30.03
2019-05-13T02:34:05.137Z,30.58
2019-05-13T02:44:11.989Z,32.09
2019-05-13T02:54:14.024Z,33.28
2019-05-13T03:04:17.624Z,35.18
2019-05-13T03:14:23.832Z,38.19
2019-05-13T03:24:26.546Z,39.87
2019-05-13T03:34:36.163Z,40.94
2019-05-13T03:54:39.517Z,45.85
2019-05-13T04:04:43.111Z,45.67
2019-05-13T04:14:46.665Z,44.91
2019-05-13T04:24:53.046Z,42.45
2019-05-13T04:34:55.674Z,37.91
2019-05-13T04:45:02.667Z,31.09
2019-05-13T04:55:06.949Z,31.11
2019-05-13T05:05:28.991Z,32.45
2019-05-13T05:15:41.581Z,33.42
2019-05-13T05:26:22.295Z,34.61
2019-05-13T05:36:45.961Z,36.18
2019-05-13T05:46:51.536Z,37.73
2019-05-13T05:56:54.843Z,37.31
2019-05-13T06:06:58.454Z,37.69
2019-05-13T06:17:02.819Z,37.98
2019-05-13T06:27:06.610Z,38.23
2019-05-13T06:37:11.408Z,37.77
2019-05-13T06:47:15.191Z,37.55
2019-05-13T06:57:19.032Z,37.15
2019-05-13T07:07:22.625Z,36.70
2019-05-13T07:17:26.219Z,37.74
2019-05-13T07:27:31.774Z,30.03
2019-05-13T07:37:35.113Z,27.96
2019-05-13T07:47:38.688Z,28.93
2019-05-13T07:57:42.538Z,29.95
2019-05-13T08:07:46.218Z,30.77
2019-05-13T08:17:52.418Z,31.48
2019-05-13T08:27:55.167Z,32.41
2019-05-13T08:38:01.173Z,32.74
2019-05-13T08:48:05.211Z,33.05
2019-05-13T08:58:08.808Z,33.65
2019-05-13T09:08:12.380Z,34.09
2019-05-13T09:18:15.997Z,34.44
2019-05-13T09:28:21.810Z,34.87
2019-05-13T09:38:24.906Z,34.85
2019-05-13T09:48:28.504Z,35.61
2019-05-13T09:58:33.127Z,36.96
2019-05-13T10:08:37.389Z,37.19
2019-05-13T10:18:42.097Z,37.43
2019-05-13T10:28:46.100Z,37.84
2019-05-13T10:38:51.967Z,38.13
2019-05-13T10:48:55.003Z,37.77
2019-05-13T10:58:58.607Z,35.89
2019-05-13T11:09:02.347Z,29.40
2019-05-13T11:19:06.049Z,27.69
2019-05-13T11:29:12.094Z,29.13
2019-05-13T11:39:14.959Z,30.35
2019-05-13T11:49:18.541Z,31.39
2019-05-13T11:59:22.328Z,32.56
2019-05-13T12:09:25.944Z,33.45
2019-05-13T12:19:29.520Z,34.46
2019-05-13T12:29:33.112Z,36.33
2019-05-13T12:39:36.704Z,37.47
2019-05-13T12:49:43.855Z,36.68
2019-05-13T12:59:45.596Z,35.77
2019-05-13T13:09:53.647Z,38.30
2019-05-13T13:20:04.654Z,40.65
2019-05-13T13:30:06.056Z,40.53
2019-05-13T13:40:07.332Z,37.94
2019-05-13T13:50:11.797Z,37.25
2019-05-13T14:00:32.955Z,39.05
2019-05-13T14:10:22.043Z,39.62
2019-05-13T14:20:25.826Z,38.62
2019-05-13T14:30:31.282Z,37.99
2019-05-13T14:40:35.419Z,37.50
2019-05-13T14:50:41.579Z,37.26
2019-05-13T15:00:45.007Z,37.87
2019-05-13T15:10:48.609Z,37.21
2019-05-13T15:20:52.974Z,37.15
2019-05-13T15:30:56.804Z,35.10
2019-05-13T15:41:01.933Z,37.66
2019-05-13T15:51:05.834Z,36.56
2019-05-13T16:01:09.412Z,37.34
2019-05-13T16:11:13.009Z,38.45
2019-05-13T16:21:16.992Z,37.35
2019-05-13T16:31:20.592Z,38.39
2019-05-13T16:41:24.233Z,36.44
2019-05-13T16:51:27.807Z,36.12
2019-05-13T17:01:31.380Z,36.59
2019-05-13T17:11:34.978Z,35.19
2019-05-13T17:21:40.957Z,31.86
2019-05-13T17:31:43.869Z,33.87
2019-05-13T17:41:47.486Z,33.86
2019-05-13T17:51:51.677Z,34.97
2019-05-13T18:01:55.900Z,36.18
2019-05-13T18:11:59.504Z,35.91
2019-05-13T18:22:03.139Z,36.17
2019-05-13T18:32:08.288Z,37.87
2019-05-13T18:42:11.911Z,38.97
2019-05-13T18:52:15.509Z,39.25
2019-05-13T19:02:21.278Z,39.03
2019-05-13T19:12:25.822Z,39.19
2019-05-13T19:22:31.657Z,39.40
2019-05-13T19:32:35.019Z,35.76
2019-05-13T19:42:38.693Z,35.11
2019-05-13T19:52:42.299Z,36.04
2019-05-13T20:02:45.909Z,35.76
2019-05-13T20:12:51.277Z,36.46
2019-05-13T20:22:54.915Z,36.50
2019-05-13T20:32:58.493Z,38.29
2019-05-13T20:43:02.083Z,38.81
2019-05-13T20:53:05.792Z,39.04
2019-05-13T21:03:11.563Z,39.66
2019-05-13T21:13:14.746Z,39.73
2019-05-13T21:23:18.526Z,39.99
2019-05-13T21:33:22.326Z,39.18
2019-05-13T21:43:25.879Z,39.61
2019-05-13T21:53:32.360Z,34.04
2019-05-13T22:03:35.206Z,29.52
2019-05-13T22:13:38.743Z,29.65
2019-05-13T22:23:42.428Z,30.83
2019-05-13T22:33:46.075Z,31.94
2019-05-13T22:43:55.680Z,33.62
2019-05-13T22:53:55.027Z,34.62
2019-05-13T23:03:58.628Z,37.55
2019-05-13T23:14:09.774Z,38.36
2019-05-13T23:24:08.242Z,38.70
2019-05-13T23:34:12.154Z,39.58
2019-05-13T23:44:24.836Z,39.58
2019-05-13T23:54:21.544Z,40.02
